This is the latest recevied weather packets stored in our database for station/object OH6GKW. If no packets are shown the sender has not sent any weather packets the latest 1 day(s).
| Time | Temp. | Humidity | Pressure | Rain* | Wind** | Luminosity | Snow |
|---|---|---|---|---|---|---|---|
| 1836274583 | 9.44° C | 98% | 1000.8 hPa | 2.03 mm | 1.79 m/s, 116° | 0 W/m² | - |
| 1836274443 | 9.44° C | 98% | 1000.2 hPa | 2.29 mm | 1.79 m/s, 121° | 0 W/m² | - |
| 1836274306 | 9.44° C | 98% | 1000.8 hPa | 2.03 mm | 1.79 m/s, 104° | 0 W/m² | - |
| 1836274135 | 9.44° C | 98% | 1000.2 hPa | 2.03 mm | 1.79 m/s, 121° | 0 W/m² | - |
| 1836273998 | 9.44° C | 98% | 1000.8 hPa | 2.03 mm | 1.34 m/s, 128° | 0 W/m² | - |
| 1778054333 | 5.56° C | 66% | 1005.4 hPa | 0 mm | 3.58 m/s, 291° | 683 W/m² | - |
| 1778054026 | 5° C | 66% | 1005.4 hPa | 0 mm | 3.58 m/s, 291° | 639 W/m² | - |
| 1778053721 | 5° C | 66% | 1005.4 hPa | 0 mm | 3.58 m/s, 271° | 604 W/m² | - |
| 1778053410 | 5° C | 66% | 1005.2 hPa | 0 mm | 3.58 m/s, 235° | 586 W/m² | - |
| 1778053123 | 5° C | 66% | 1005.2 hPa | 0 mm | 3.13 m/s, 262° | 591 W/m² | - |
| 1778052825 | 5° C | 67% | 1005.2 hPa | 0 mm | 3.13 m/s, 282° | 581 W/m² | - |
| 1778052516 | 5° C | 68% | 1005.1 hPa | 0 mm | 3.58 m/s, 234° | 563 W/m² | - |
| 1778052241 | 5° C | 67% | 1005.1 hPa | 0 mm | 3.13 m/s, 235° | 561 W/m² | - |
| 1778051920 | 5° C | 67% | 1005.1 hPa | 0 mm | 2.68 m/s, 230° | 544 W/m² | - |
| 1778051616 | 5° C | 67% | 1004.9 hPa | 0 mm | 3.13 m/s, 216° | 528 W/m² | - |
| 1778051321 | 4.44° C | 67% | 1004.9 hPa | 0 mm | 4.02 m/s, 207° | 521 W/m² | - |
| 1778051014 | 4.44° C | 68% | 1004.9 hPa | 0 mm | 3.58 m/s, 227° | 514 W/m² | - |
| 1778050709 | 5° C | 68% | 1004.6 hPa | 0 mm | 3.13 m/s, 262° | 507 W/m² | - |
| 1778050421 | 5° C | 68% | 1004.6 hPa | 0 mm | 3.13 m/s, 240° | 509 W/m² | - |
| 1778050113 | 5° C | 67% | 1004.6 hPa | 0 mm | 3.13 m/s, 288° | 489 W/m² | - |
| 1778049809 | 5° C | 66% | 1004.5 hPa | 0 mm | 3.13 m/s, 329° | 479 W/m² | - |
| 1778049520 | 5° C | 67% | 1004.5 hPa | 0 mm | 3.13 m/s, 255° | 470 W/m² | - |
| 1778049217 | 4.44° C | 67% | 1004.4 hPa | 0 mm | 3.13 m/s, 317° | 461 W/m² | - |
| 1778048939 | 4.44° C | 67% | 1004.3 hPa | 0 mm | 3.13 m/s, 272° | 452 W/m² | - |
| 1778048632 | 4.44° C | 67% | 1004.3 hPa | 0 mm | 3.13 m/s, 255° | 443 W/m² | - |
* Rain since midnight (hover to see other rain measurements)
** Current wind speed in m/s (hover to see current wind gust speed)